createdAt,value
2018-03-31T00:02:08.622Z,11.53
2018-03-31T00:04:40.620Z,10.90
2018-03-31T00:07:12.669Z,10.50
2018-03-31T00:09:44.709Z,11.37
2018-03-31T00:12:16.728Z,10.97
2018-03-31T00:14:48.765Z,11.63
2018-03-31T00:17:20.785Z,10.80
2018-03-31T00:19:52.767Z,11.33
2018-03-31T00:22:25.560Z,11.40
2018-03-31T00:24:57.558Z,11.37
2018-03-31T00:27:29.589Z,12.10
2018-03-31T00:30:01.593Z,11.80
2018-03-31T00:32:33.627Z,11.87
2018-03-31T00:35:05.618Z,11.40
2018-03-31T00:37:37.641Z,11.33
2018-03-31T00:40:09.638Z,12.13
2018-03-31T00:42:41.716Z,10.87
2018-03-31T00:45:13.755Z,12.10
2018-03-31T00:47:45.772Z,10.97
2018-03-31T00:50:17.815Z,12.03
2018-03-31T00:52:49.872Z,12.10
2018-03-31T00:55:22.729Z,11.13
2018-03-31T00:57:54.748Z,11.87
2018-03-31T01:00:26.798Z,11.67
2018-03-31T01:02:58.836Z,10.03
2018-03-31T01:05:30.908Z,12.37
2018-03-31T01:08:02.923Z,9.77
2018-03-31T01:10:34.969Z,11.77
2018-03-31T01:13:06.978Z,11.63
2018-03-31T01:15:39.040Z,12.80
2018-03-31T01:18:11.083Z,11.83
2018-03-31T01:20:43.089Z,11.20
2018-03-31T01:23:15.092Z,12.40
2018-03-31T01:25:47.142Z,13.33
2018-03-31T01:28:19.152Z,11.63
2018-03-31T01:30:51.191Z,12.20
2018-03-31T01:33:23.217Z,12.17
2018-03-31T01:35:55.250Z,11.53
2018-03-31T01:38:27.260Z,12.10
2018-03-31T01:40:59.287Z,12.50
2018-03-31T01:43:31.306Z,12.03
2018-03-31T01:46:03.343Z,12.13
2018-03-31T01:48:35.344Z,12.73
2018-03-31T01:51:07.373Z,12.63
2018-03-31T01:53:39.374Z,11.20
2018-03-31T01:56:11.390Z,12.57
2018-03-31T01:58:43.394Z,12.33
2018-03-31T02:01:15.456Z,12.87
2018-03-31T02:03:47.464Z,12.23
2018-03-31T02:06:19.488Z,12.67
2018-03-31T02:08:51.517Z,11.07
2018-03-31T02:11:23.545Z,12.73
2018-03-31T02:13:55.716Z,12.60
2018-03-31T02:16:27.740Z,12.73
2018-03-31T02:18:59.748Z,14.03
2018-03-31T02:21:31.765Z,12.57
2018-03-31T02:24:03.758Z,12.80
2018-03-31T02:26:37.650Z,12.87
2018-03-31T02:29:11.114Z,12.23
2018-03-31T02:31:43.152Z,13.13
2018-03-31T02:34:15.182Z,12.23
2018-03-31T02:36:47.198Z,12.20
2018-03-31T02:39:19.208Z,12.33
2018-03-31T02:41:51.236Z,12.97
2018-03-31T02:44:23.263Z,11.57
2018-03-31T02:46:55.294Z,12.77
2018-03-31T02:49:27.305Z,12.37
2018-03-31T02:51:59.344Z,11.80
2018-03-31T02:54:31.367Z,12.53
2018-03-31T02:57:03.380Z,12.67
2018-03-31T02:59:35.405Z,12.00
2018-03-31T03:02:07.434Z,12.00
2018-03-31T03:04:39.580Z,12.23
2018-03-31T03:07:11.624Z,11.87
2018-03-31T03:09:43.625Z,11.70
2018-03-31T03:12:15.633Z,12.10
2018-03-31T03:14:47.681Z,12.43
2018-03-31T03:17:19.708Z,10.90
2018-03-31T03:19:51.749Z,11.63
2018-03-31T03:22:23.783Z,13.27
2018-03-31T03:24:55.856Z,12.70
2018-03-31T03:27:27.947Z,12.03
2018-03-31T03:29:59.945Z,12.10
2018-03-31T03:32:32.062Z,11.57
2018-03-31T03:35:04.116Z,12.10
2018-03-31T03:37:36.177Z,11.57
2018-03-31T03:40:08.248Z,12.00
2018-03-31T03:42:40.324Z,11.53
2018-03-31T03:45:12.330Z,12.13
2018-03-31T03:47:44.385Z,12.10
2018-03-31T03:50:16.424Z,11.67
2018-03-31T03:52:48.450Z,12.33
2018-03-31T03:55:20.444Z,10.23
2018-03-31T03:57:52.476Z,12.13
2018-03-31T04:00:24.470Z,11.80
2018-03-31T04:02:56.491Z,11.70
2018-03-31T04:05:28.486Z,12.00
2018-03-31T04:08:00.516Z,7.90
2018-03-31T04:10:32.504Z,11.77
2018-03-31T04:13:04.518Z,11.47
2018-03-31T04:15:36.522Z,11.60
2018-03-31T04:18:08.538Z,11.30
2018-03-31T04:20:40.534Z,10.87
2018-03-31T04:23:12.553Z,11.70
2018-03-31T04:25:44.545Z,11.73
2018-03-31T04:28:16.564Z,11.87
2018-03-31T04:30:48.559Z,11.63
2018-03-31T04:33:20.587Z,11.43
2018-03-31T04:35:52.592Z,11.50
2018-03-31T04:38:24.623Z,12.03
2018-03-31T04:40:56.631Z,12.50
2018-03-31T04:43:28.666Z,11.07
2018-03-31T04:46:00.664Z,10.90
2018-03-31T04:48:32.693Z,11.27
2018-03-31T04:51:04.702Z,12.10
2018-03-31T04:53:36.724Z,12.90
2018-03-31T04:56:08.727Z,12.07
2018-03-31T04:58:40.762Z,11.57
2018-03-31T05:01:12.775Z,11.40
2018-03-31T05:03:44.808Z,11.43
2018-03-31T05:06:16.814Z,11.17
2018-03-31T05:08:48.839Z,11.63
2018-03-31T05:11:20.874Z,10.73
2018-03-31T05:13:52.904Z,12.03
2018-03-31T05:16:24.898Z,11.87
2018-03-31T05:18:56.951Z,12.23
2018-03-31T05:21:28.951Z,12.13
2018-03-31T05:24:00.985Z,12.57
2018-03-31T05:26:32.991Z,11.50
2018-03-31T05:29:05.010Z,11.90
2018-03-31T05:31:37.056Z,11.80
2018-03-31T05:34:09.044Z,11.77
2018-03-31T05:36:41.057Z,12.03
2018-03-31T05:39:13.064Z,11.77
2018-03-31T05:41:45.089Z,12.67
2018-03-31T05:44:17.090Z,11.80
2018-03-31T05:46:49.104Z,10.70
2018-03-31T05:49:21.100Z,13.17
2018-03-31T05:51:53.126Z,13.50
2018-03-31T05:54:25.132Z,12.03
2018-03-31T05:56:57.193Z,13.70
2018-03-31T05:59:29.183Z,14.33
2018-03-31T06:02:01.205Z,14.83
2018-03-31T06:04:33.206Z,14.37
2018-03-31T06:07:05.252Z,14.13
2018-03-31T06:09:37.294Z,13.83
2018-03-31T06:12:09.344Z,14.43
2018-03-31T06:14:41.389Z,12.43
2018-03-31T06:17:13.412Z,14.00
2018-03-31T06:19:45.415Z,14.30
2018-03-31T06:22:17.462Z,14.17
2018-03-31T06:24:51.834Z,13.37
2018-03-31T06:27:23.913Z,14.83
2018-03-31T06:29:55.925Z,14.17
2018-03-31T06:32:27.985Z,15.03
2018-03-31T06:34:59.996Z,15.37
2018-03-31T06:37:32.070Z,15.27
2018-03-31T06:40:04.085Z,15.17
2018-03-31T06:42:36.133Z,19.73
2018-03-31T06:45:08.150Z,15.73
2018-03-31T06:47:40.188Z,16.20
2018-03-31T06:50:12.204Z,16.50
2018-03-31T06:52:44.302Z,16.90
2018-03-31T06:55:16.315Z,16.57
2018-03-31T06:57:48.353Z,17.40
2018-03-31T07:00:20.366Z,20.70
2018-03-31T07:02:52.388Z,18.70
2018-03-31T07:05:24.430Z,18.80
2018-03-31T07:07:56.454Z,18.27
2018-03-31T07:10:28.457Z,18.50
2018-03-31T07:13:00.490Z,19.17
2018-03-31T07:15:32.534Z,18.50
2018-03-31T07:18:04.562Z,21.27
2018-03-31T07:20:36.588Z,18.73
2018-03-31T07:23:08.633Z,19.30
2018-03-31T07:25:40.644Z,19.53
2018-03-31T07:28:12.720Z,19.07
2018-03-31T07:30:44.736Z,19.07
2018-03-31T07:33:16.801Z,21.17
2018-03-31T07:35:48.826Z,20.90
2018-03-31T07:38:20.872Z,19.73
2018-03-31T07:40:52.903Z,22.33
2018-03-31T07:43:24.961Z,19.00
2018-03-31T07:45:56.983Z,20.40
2018-03-31T07:48:29.034Z,20.30
2018-03-31T07:51:01.064Z,21.77
2018-03-31T07:53:33.154Z,22.00
2018-03-31T07:56:05.196Z,20.40
2018-03-31T07:58:37.224Z,20.80
2018-03-31T08:01:09.256Z,20.67
2018-03-31T08:03:41.289Z,21.13
2018-03-31T08:06:13.319Z,23.37
2018-03-31T08:08:45.350Z,23.97
2018-03-31T08:11:17.417Z,22.07
2018-03-31T08:13:49.458Z,25.80
2018-03-31T08:16:21.494Z,25.63
2018-03-31T08:18:53.575Z,21.80
2018-03-31T08:21:25.591Z,25.60
2018-03-31T08:23:57.646Z,26.93
2018-03-31T08:26:29.684Z,20.17
2018-03-31T08:29:01.741Z,20.80
2018-03-31T08:31:33.805Z,24.17
2018-03-31T08:34:05.856Z,22.53
2018-03-31T08:36:37.918Z,20.00
2018-03-31T08:39:09.960Z,23.30
2018-03-31T08:41:42.013Z,25.17
2018-03-31T08:44:14.082Z,21.37
2018-03-31T08:46:46.122Z,25.13
2018-03-31T08:49:18.351Z,21.40
2018-03-31T08:51:50.436Z,23.17
2018-03-31T08:54:22.532Z,23.63
2018-03-31T08:56:54.564Z,24.93
2018-03-31T08:59:26.640Z,21.97
2018-03-31T09:01:58.686Z,23.87
2018-03-31T09:04:30.751Z,23.13
2018-03-31T09:07:02.789Z,21.37
2018-03-31T09:09:34.963Z,23.57
2018-03-31T09:12:07.010Z,23.03
2018-03-31T09:14:39.082Z,20.67
2018-03-31T09:17:11.122Z,23.73
2018-03-31T09:19:43.198Z,21.57
2018-03-31T09:22:15.287Z,25.17
2018-03-31T09:24:47.361Z,22.60
2018-03-31T09:27:19.436Z,20.33
2018-03-31T09:29:51.588Z,26.10
2018-03-31T09:32:23.800Z,23.53
2018-03-31T09:34:55.887Z,26.57
2018-03-31T09:37:28.008Z,25.60
2018-03-31T09:40:00.252Z,25.77
2018-03-31T09:42:32.358Z,22.90
2018-03-31T09:45:04.555Z,21.57
2018-03-31T09:47:37.321Z,26.93
2018-03-31T09:50:42.907Z,22.60
2018-03-31T09:54:56.071Z,24.87
2018-03-31T10:00:36.369Z,23.90
2018-03-31T10:03:08.506Z,25.27
2018-03-31T10:05:40.808Z,26.03
2018-03-31T10:08:13.454Z,23.10
2018-03-31T10:10:45.514Z,26.47
2018-03-31T10:13:18.702Z,25.87
2018-03-31T10:15:51.147Z,26.93
2018-03-31T10:18:23.932Z,24.13
2018-03-31T10:20:56.436Z,28.73
2018-03-31T10:23:29.067Z,27.47
2018-03-31T10:26:01.139Z,25.73
2018-03-31T10:28:33.250Z,28.80
2018-03-31T10:31:05.273Z,30.90
2018-03-31T10:33:37.333Z,24.50
2018-03-31T10:36:09.369Z,31.50
2018-03-31T10:38:41.391Z,25.83
2018-03-31T10:41:13.335Z,25.17
2018-03-31T10:43:45.332Z,28.10
2018-03-31T10:46:17.270Z,29.23
2018-03-31T10:48:49.234Z,31.90
2018-03-31T10:51:21.179Z,22.80
2018-03-31T10:53:53.139Z,27.80
2018-03-31T10:56:25.079Z,21.63
2018-03-31T10:58:57.035Z,24.60
2018-03-31T11:01:28.977Z,30.67
2018-03-31T11:04:01.116Z,23.23
2018-03-31T11:06:33.396Z,21.73
2018-03-31T11:09:05.437Z,22.63
2018-03-31T11:11:37.548Z,23.80
2018-03-31T11:14:09.672Z,18.77
2018-03-31T11:16:41.668Z,23.63
2018-03-31T11:19:13.660Z,20.60
2018-03-31T11:21:45.611Z,20.43
2018-03-31T11:24:17.578Z,19.27
2018-03-31T11:26:49.520Z,20.60
2018-03-31T11:29:21.487Z,24.20
2018-03-31T11:31:53.461Z,19.70
2018-03-31T11:34:25.430Z,22.20
2018-03-31T11:36:57.373Z,22.93
2018-03-31T11:39:29.546Z,20.13
2018-03-31T11:42:01.583Z,21.00
2018-03-31T11:44:33.916Z,21.77
2018-03-31T11:47:05.933Z,21.17
2018-03-31T11:49:38.023Z,18.67
2018-03-31T11:52:10.097Z,20.20
2018-03-31T11:54:42.206Z,18.57
2018-03-31T11:57:14.158Z,18.37
2018-03-31T11:59:46.118Z,20.23
2018-03-31T12:02:18.064Z,18.73
2018-03-31T12:04:50.030Z,17.33
2018-03-31T12:07:21.975Z,18.47
2018-03-31T12:09:53.941Z,17.50
2018-03-31T12:12:25.879Z,18.50
2018-03-31T12:14:58.015Z,17.50
2018-03-31T12:17:29.977Z,18.97
2018-03-31T12:20:02.050Z,17.60
2018-03-31T12:22:34.111Z,15.33
2018-03-31T12:25:06.165Z,17.70
2018-03-31T12:27:38.352Z,17.80
2018-03-31T12:30:10.452Z,19.87
2018-03-31T12:32:42.461Z,18.40
2018-03-31T12:35:15.163Z,20.17
2018-03-31T12:37:47.099Z,19.83
2018-03-31T12:40:19.079Z,18.73
2018-03-31T12:42:51.028Z,18.57
2018-03-31T12:45:22.987Z,18.37
2018-03-31T12:47:54.924Z,18.93
2018-03-31T12:50:26.883Z,20.80
2018-03-31T12:52:58.828Z,18.80
2018-03-31T12:55:30.838Z,18.47
2018-03-31T12:58:02.899Z,18.57
2018-03-31T13:00:34.920Z,22.57
2018-03-31T13:03:06.962Z,21.67
2018-03-31T13:05:38.999Z,18.77
2018-03-31T13:08:10.994Z,18.60
2018-03-31T13:10:42.970Z,17.83
2018-03-31T13:13:14.926Z,19.40
2018-03-31T13:15:46.879Z,17.97
2018-03-31T13:18:18.814Z,17.37
2018-03-31T13:20:50.778Z,17.23
2018-03-31T13:23:22.727Z,17.73
2018-03-31T13:25:54.686Z,15.23
2018-03-31T13:28:26.623Z,20.20
2018-03-31T13:30:58.580Z,15.30
2018-03-31T13:33:31.629Z,16.73
2018-03-31T13:36:03.818Z,15.93
2018-03-31T13:38:35.897Z,16.37
2018-03-31T13:41:08.049Z,18.73
2018-03-31T13:43:40.076Z,18.83
2018-03-31T13:46:12.052Z,20.17
2018-03-31T13:48:44.042Z,21.17
2018-03-31T13:51:15.980Z,18.20
2018-03-31T13:53:47.935Z,19.23
2018-03-31T13:56:19.871Z,18.43
2018-03-31T13:58:53.298Z,21.20
2018-03-31T14:01:25.240Z,23.40
2018-03-31T14:06:36.886Z,20.07
2018-03-31T14:09:08.883Z,21.97
2018-03-31T14:11:40.869Z,16.90
2018-03-31T14:14:15.362Z,21.50
2018-03-31T14:16:47.410Z,20.83
2018-03-31T14:19:19.394Z,16.47
2018-03-31T14:21:52.102Z,18.00
2018-03-31T14:24:24.157Z,18.93
2018-03-31T14:26:56.130Z,15.90
2018-03-31T14:29:28.115Z,15.33
2018-03-31T14:32:00.051Z,14.57
2018-03-31T14:34:32.014Z,18.53
2018-03-31T14:37:03.958Z,12.73
2018-03-31T14:39:35.918Z,16.20
2018-03-31T14:42:08.585Z,13.87
2018-03-31T14:44:46.196Z,14.17
2018-03-31T14:47:18.414Z,16.53
2018-03-31T14:49:56.645Z,13.13
2018-03-31T14:52:28.615Z,14.37
2018-03-31T14:55:01.515Z,17.37
2018-03-31T14:57:33.463Z,13.67
2018-03-31T15:00:05.425Z,13.33
2018-03-31T15:02:37.368Z,11.17
2018-03-31T15:05:09.565Z,12.20
2018-03-31T15:07:41.628Z,12.23
2018-03-31T15:10:13.731Z,13.30
2018-03-31T15:12:45.872Z,11.77
2018-03-31T15:15:21.633Z,12.33
2018-03-31T15:17:54.128Z,14.63
2018-03-31T15:20:26.091Z,17.30
2018-03-31T15:22:58.033Z,13.37
2018-03-31T15:25:30.021Z,16.10
2018-03-31T15:28:02.001Z,13.03
2018-03-31T15:30:33.967Z,14.80
2018-03-31T15:33:05.915Z,15.10
2018-03-31T15:35:37.989Z,13.57
2018-03-31T15:38:10.618Z,12.93
2018-03-31T15:40:42.929Z,12.73
2018-03-31T15:43:14.947Z,13.43
2018-03-31T15:45:47.443Z,11.20
2018-03-31T15:48:19.449Z,14.87
2018-03-31T15:50:51.422Z,13.73
2018-03-31T15:53:23.374Z,13.97
2018-03-31T15:55:55.334Z,15.10
2018-03-31T15:58:27.279Z,12.90
2018-03-31T16:00:59.258Z,11.40
2018-03-31T16:03:31.475Z,11.43
2018-03-31T16:06:04.079Z,12.53
2018-03-31T16:08:36.024Z,11.53
2018-03-31T16:11:08.515Z,12.60
2018-03-31T16:13:40.692Z,13.93
2018-03-31T16:16:12.874Z,14.83
2018-03-31T16:18:44.999Z,12.57
2018-03-31T16:21:16.989Z,12.47
2018-03-31T16:23:48.950Z,13.57
2018-03-31T16:26:20.926Z,10.03
2018-03-31T16:28:54.213Z,12.77
2018-03-31T16:31:26.265Z,12.33
2018-03-31T16:33:58.239Z,12.03
2018-03-31T16:36:30.231Z,11.43
2018-03-31T16:39:02.173Z,10.47
2018-03-31T16:41:34.153Z,13.27
2018-03-31T16:44:06.099Z,14.17
2018-03-31T16:46:38.431Z,12.63
2018-03-31T16:49:10.504Z,12.93
2018-03-31T16:51:47.597Z,12.50
2018-03-31T16:54:19.754Z,13.77
2018-03-31T16:56:52.156Z,14.63
2018-03-31T16:59:24.198Z,13.33
2018-03-31T17:01:56.242Z,12.33
2018-03-31T17:04:28.211Z,12.70
2018-03-31T17:07:00.178Z,10.77
2018-03-31T17:09:32.114Z,11.80
2018-03-31T17:12:04.086Z,12.07
2018-03-31T17:14:36.050Z,11.57
2018-03-31T17:17:09.078Z,14.73
2018-03-31T17:19:42.518Z,11.73
2018-03-31T17:22:14.909Z,11.37
2018-03-31T17:24:48.837Z,11.83
2018-03-31T17:27:21.311Z,11.57
2018-03-31T17:29:53.383Z,12.07
2018-03-31T17:32:25.339Z,9.87
2018-03-31T17:34:57.277Z,10.20
2018-03-31T17:37:29.240Z,15.57
2018-03-31T17:40:01.224Z,21.93
2018-03-31T17:42:33.186Z,29.57
2018-03-31T17:45:05.131Z,39.73
2018-03-31T17:47:37.101Z,54.00
2018-03-31T17:50:11.472Z,47.47
2018-03-31T17:52:44.512Z,47.00
2018-03-31T17:55:17.627Z,38.17
2018-03-31T17:57:50.319Z,30.43
2018-03-31T18:00:23.174Z,32.20
2018-03-31T18:02:55.408Z,21.90
2018-03-31T18:05:27.417Z,20.53
2018-03-31T18:07:59.354Z,18.70
2018-03-31T18:10:31.315Z,19.20
2018-03-31T18:13:03.250Z,18.03
2018-03-31T18:15:35.236Z,20.47
2018-03-31T18:18:07.193Z,18.03
2018-03-31T18:20:40.854Z,17.70
2018-03-31T18:23:15.256Z,19.50
2018-03-31T18:25:47.962Z,20.37
2018-03-31T18:28:22.379Z,20.50
2018-03-31T18:30:59.044Z,21.30
2018-03-31T18:33:31.066Z,20.67
2018-03-31T18:36:03.032Z,20.07
2018-03-31T18:38:34.975Z,20.80
2018-03-31T18:41:06.946Z,20.70
2018-03-31T18:43:40.353Z,19.00
2018-03-31T18:46:24.312Z,20.37
2018-03-31T18:48:57.458Z,20.90
2018-03-31T18:51:29.476Z,20.13
2018-03-31T18:54:01.394Z,20.37
2018-03-31T18:56:33.380Z,20.67
2018-03-31T18:59:05.374Z,21.67
2018-03-31T19:01:37.346Z,20.87
2018-03-31T19:04:09.908Z,20.23
2018-03-31T19:06:47.895Z,18.43
2018-03-31T19:09:20.811Z,22.50
2018-03-31T19:11:56.651Z,19.47
2018-03-31T19:14:28.674Z,19.70
2018-03-31T19:17:06.393Z,22.13
2018-03-31T19:19:38.536Z,20.77
2018-03-31T19:22:12.136Z,18.23
2018-03-31T19:24:53.050Z,17.67
2018-03-31T19:27:27.589Z,17.30
2018-03-31T19:29:59.555Z,16.90
2018-03-31T19:32:31.536Z,17.03
2018-03-31T19:35:03.480Z,17.73
2018-03-31T19:37:35.443Z,17.90
2018-03-31T19:40:07.376Z,17.47
2018-03-31T19:42:48.683Z,16.97
2018-03-31T19:45:21.581Z,18.20
2018-03-31T19:47:55.827Z,19.10
2018-03-31T19:50:29.146Z,20.20
2018-03-31T19:53:01.129Z,21.43
2018-03-31T19:55:33.070Z,21.80
2018-03-31T19:58:05.043Z,20.67
2018-03-31T20:00:36.991Z,21.87
2018-03-31T20:03:13.252Z,22.90
2018-03-31T20:05:49.041Z,22.17
2018-03-31T20:08:21.419Z,22.40
2018-03-31T20:10:53.399Z,24.63
2018-03-31T20:13:25.363Z,22.43
2018-03-31T20:15:57.310Z,22.47
2018-03-31T20:18:29.340Z,22.93
2018-03-31T20:21:01.336Z,23.87
2018-03-31T20:23:33.307Z,24.20
2018-03-31T20:26:05.276Z,24.63
2018-03-31T20:28:37.221Z,23.50
2018-03-31T20:31:10.719Z,24.53
2018-03-31T20:33:43.066Z,23.57
2018-03-31T20:36:16.335Z,25.87
2018-03-31T20:38:48.558Z,26.67
2018-03-31T20:41:20.706Z,26.37
2018-03-31T20:43:54.060Z,25.87
2018-03-31T20:46:28.044Z,27.60
2018-03-31T20:48:59.988Z,25.13
2018-03-31T20:51:31.947Z,28.77
2018-03-31T20:54:03.895Z,23.90
2018-03-31T20:56:35.890Z,25.40
2018-03-31T20:59:08.052Z,25.93
2018-03-31T21:01:45.247Z,24.37
2018-03-31T21:04:18.181Z,28.53
2018-03-31T21:06:53.094Z,31.03
2018-03-31T21:09:28.401Z,30.43
2018-03-31T21:12:00.383Z,27.77
2018-03-31T21:14:32.324Z,28.13
2018-03-31T21:17:04.284Z,27.73
2018-03-31T21:19:36.230Z,26.20
2018-03-31T21:22:08.298Z,25.77
2018-03-31T21:24:44.468Z,25.57
2018-03-31T21:27:16.869Z,24.80
2018-03-31T21:29:49.650Z,24.87
2018-03-31T21:32:22.790Z,24.33
2018-03-31T21:34:55.646Z,26.30
2018-03-31T21:37:27.646Z,25.20
2018-03-31T21:39:59.588Z,23.50
2018-03-31T21:42:31.543Z,22.33
2018-03-31T21:45:03.479Z,23.77
2018-03-31T21:47:35.441Z,23.20
2018-03-31T21:50:07.374Z,22.73
2018-03-31T21:52:44.161Z,25.27
2018-03-31T21:55:18.224Z,27.47
2018-03-31T21:57:54.347Z,31.97
2018-03-31T22:00:29.386Z,38.47
2018-03-31T22:03:01.348Z,40.30
2018-03-31T22:05:33.299Z,35.63
2018-03-31T22:08:05.264Z,32.83
2018-03-31T22:10:37.212Z,28.20
2018-03-31T22:13:15.716Z,28.13
2018-03-31T22:15:51.436Z,24.93
2018-03-31T22:18:24.140Z,24.30
2018-03-31T22:20:56.286Z,24.40
2018-03-31T22:23:28.249Z,24.00
2018-03-31T22:26:00.198Z,24.13
2018-03-31T22:28:32.158Z,24.27
2018-03-31T22:31:04.098Z,22.10
2018-03-31T22:33:36.081Z,21.90
2018-03-31T22:36:08.288Z,21.90
2018-03-31T22:38:45.634Z,21.93
2018-03-31T22:41:19.724Z,22.93
2018-03-31T22:43:53.043Z,22.83
2018-03-31T22:46:26.253Z,22.73
2018-03-31T22:48:58.447Z,23.60
2018-03-31T22:51:30.397Z,22.67
2018-03-31T22:54:02.581Z,23.13
2018-03-31T22:56:34.611Z,21.53
2018-03-31T22:59:06.662Z,20.90
2018-03-31T23:01:40.145Z,20.73
2018-03-31T23:04:13.595Z,19.57
2018-03-31T23:06:46.869Z,20.07
2018-03-31T23:09:20.109Z,21.17
2018-03-31T23:11:55.638Z,20.77
2018-03-31T23:14:28.640Z,20.70
2018-03-31T23:17:00.609Z,19.77
2018-03-31T23:19:32.562Z,20.57
2018-03-31T23:22:04.522Z,21.93
2018-03-31T23:24:36.460Z,23.13
2018-03-31T23:27:09.512Z,24.63
2018-03-31T23:29:43.161Z,24.47
2018-03-31T23:32:16.801Z,23.57
2018-03-31T23:34:49.662Z,25.73
2018-03-31T23:37:23.361Z,26.97
2018-03-31T23:39:56.043Z,26.20
2018-03-31T23:42:28.006Z,28.63
2018-03-31T23:44:59.947Z,30.43
2018-03-31T23:47:31.912Z,27.83
2018-03-31T23:50:03.860Z,31.80
2018-03-31T23:52:35.823Z,30.60
2018-03-31T23:55:07.840Z,29.87
2018-03-31T23:57:41.965Z,31.83
